sensor_id;sensor_type;location;lat;lon;timestamp;pressure;altitude;pressure_sealevel;temperature;humidity
25350;BME280;13302;48.796;11.978;2023-07-31T00:01:12;96944.47;;;16.72;38.34
25350;BME280;13302;48.796;11.978;2023-07-31T00:04:00;96942.03;;;16.67;38.33
25350;BME280;13302;48.796;11.978;2023-07-31T00:06:47;96940.03;;;16.64;38.11
25350;BME280;13302;48.796;11.978;2023-07-31T00:09:34;96936.41;;;16.60;38.22
25350;BME280;13302;48.796;11.978;2023-07-31T00:12:21;96940.75;;;16.54;38.24
25350;BME280;13302;48.796;11.978;2023-07-31T00:15:08;96941.16;;;16.52;38.29
25350;BME280;13302;48.796;11.978;2023-07-31T00:17:55;96930.72;;;16.46;38.16
25350;BME280;13302;48.796;11.978;2023-07-31T00:20:42;96941.44;;;16.40;38.19
25350;BME280;13302;48.796;11.978;2023-07-31T00:23:29;96929.81;;;16.35;38.67
25350;BME280;13302;48.796;11.978;2023-07-31T00:26:16;96939.78;;;16.32;38.48
25350;BME280;13302;48.796;11.978;2023-07-31T00:29:03;96943.34;;;16.29;38.80
25350;BME280;13302;48.796;11.978;2023-07-31T00:31:50;96940.91;;;16.24;38.84
25350;BME280;13302;48.796;11.978;2023-07-31T00:34:37;96926.13;;;16.17;38.61
25350;BME280;13302;48.796;11.978;2023-07-31T00:37:24;96938.81;;;16.14;38.94
25350;BME280;13302;48.796;11.978;2023-07-31T00:40:11;96940.78;;;16.10;39.18
25350;BME280;13302;48.796;11.978;2023-07-31T00:43:00;96938.78;;;16.07;39.02
25350;BME280;13302;48.796;11.978;2023-07-31T00:45:49;96937.94;;;16.03;39.48
25350;BME280;13302;48.796;11.978;2023-07-31T00:48:37;96939.09;;;15.98;39.62
25350;BME280;13302;48.796;11.978;2023-07-31T00:51:24;96931.91;;;15.97;39.53
25350;BME280;13302;48.796;11.978;2023-07-31T00:54:11;96930.28;;;15.93;39.78
25350;BME280;13302;48.796;11.978;2023-07-31T00:56:59;96930.66;;;15.91;39.54
25350;BME280;13302;48.796;11.978;2023-07-31T00:59:47;96926.28;;;15.90;39.81
25350;BME280;13302;48.796;11.978;2023-07-31T01:02:35;96930.25;;;15.89;39.74
25350;BME280;13302;48.796;11.978;2023-07-31T01:08:52;96924.56;;;15.79;40.31
25350;BME280;13302;48.796;11.978;2023-07-31T01:11:56;96935.28;;;15.77;40.29
25350;BME280;13302;48.796;11.978;2023-07-31T01:15:06;96925.72;;;15.74;40.74
25350;BME280;13302;48.796;11.978;2023-07-31T01:17:57;96924.53;;;15.75;39.99
25350;BME280;13302;48.796;11.978;2023-07-31T01:20:57;96923.72;;;15.71;40.75
25350;BME280;13302;48.796;11.978;2023-07-31T01:24:19;96906.56;;;15.69;40.79
25350;BME280;13302;48.796;11.978;2023-07-31T01:27:14;96909.28;;;15.66;40.37
25350;BME280;13302;48.796;11.978;2023-07-31T01:30:15;96906.50;;;15.66;40.96
25350;BME280;13302;48.796;11.978;2023-07-31T01:33:03;96900.91;;;15.66;40.60
25350;BME280;13302;48.796;11.978;2023-07-31T01:35:54;96910.09;;;15.66;40.47
25350;BME280;13302;48.796;11.978;2023-07-31T01:38:42;96910.47;;;15.64;40.92
25350;BME280;13302;48.796;11.978;2023-07-31T01:41:29;96912.06;;;15.66;40.71
25350;BME280;13302;48.796;11.978;2023-07-31T01:44:16;96906.06;;;15.63;40.97
25350;BME280;13302;48.796;11.978;2023-07-31T01:47:03;96904.47;;;15.62;40.74
25350;BME280;13302;48.796;11.978;2023-07-31T01:49:50;96895.72;;;15.64;41.00
25350;BME280;13302;48.796;11.978;2023-07-31T01:52:37;96899.72;;;15.63;40.83
25350;BME280;13302;48.796;11.978;2023-07-31T01:55:24;96895.72;;;15.64;40.54
25350;BME280;13302;48.796;11.978;2023-07-31T01:58:12;96894.13;;;15.63;40.63
25350;BME280;13302;48.796;11.978;2023-07-31T02:00:59;96884.53;;;15.60;40.86
25350;BME280;13302;48.796;11.978;2023-07-31T02:03:46;96895.69;;;15.60;40.67
25350;BME280;13302;48.796;11.978;2023-07-31T02:06:34;96893.31;;;15.59;41.03
25350;BME280;13302;48.796;11.978;2023-07-31T02:09:21;96896.47;;;15.57;40.90
25350;BME280;13302;48.796;11.978;2023-07-31T02:12:08;96894.81;;;15.53;41.19
25350;BME280;13302;48.796;11.978;2023-07-31T02:14:55;96891.63;;;15.51;41.20
25350;BME280;13302;48.796;11.978;2023-07-31T02:17:42;96889.59;;;15.48;41.06
25350;BME280;13302;48.796;11.978;2023-07-31T02:20:29;96884.03;;;15.48;40.91
25350;BME280;13302;48.796;11.978;2023-07-31T02:23:17;96882.38;;;15.43;40.95
25350;BME280;13302;48.796;11.978;2023-07-31T02:26:05;96877.56;;;15.40;41.02
25350;BME280;13302;48.796;11.978;2023-07-31T02:28:52;96868.38;;;15.36;41.12
25350;BME280;13302;48.796;11.978;2023-07-31T02:31:39;96869.53;;;15.32;41.11
25350;BME280;13302;48.796;11.978;2023-07-31T02:34:26;96873.47;;;15.27;40.90
25350;BME280;13302;48.796;11.978;2023-07-31T02:37:13;96870.25;;;15.25;40.96
25350;BME280;13302;48.796;11.978;2023-07-31T02:40:00;96865.06;;;15.24;40.61
25350;BME280;13302;48.796;11.978;2023-07-31T02:42:49;96858.66;;;15.20;40.92
25350;BME280;13302;48.796;11.978;2023-07-31T02:45:36;96861.41;;;15.16;40.98
25350;BME280;13302;48.796;11.978;2023-07-31T02:48:24;96855.81;;;15.12;40.77
25350;BME280;13302;48.796;11.978;2023-07-31T02:51:11;96856.19;;;15.11;40.66
25350;BME280;13302;48.796;11.978;2023-07-31T02:53:58;96862.50;;;15.08;40.85
25350;BME280;13302;48.796;11.978;2023-07-31T02:56:45;96860.91;;;15.07;40.92
25350;BME280;13302;48.796;11.978;2023-07-31T02:59:32;96855.72;;;15.05;41.11
25350;BME280;13302;48.796;11.978;2023-07-31T03:02:19;96856.91;;;15.04;40.71
25350;BME280;13302;48.796;11.978;2023-07-31T03:05:06;96850.50;;;15.00;41.15
25350;BME280;13302;48.796;11.978;2023-07-31T03:07:53;96852.03;;;14.98;41.16
25350;BME280;13302;48.796;11.978;2023-07-31T03:10:40;96853.63;;;14.95;40.87
25350;BME280;13302;48.796;11.978;2023-07-31T03:13:27;96861.56;;;14.93;41.14
25350;BME280;13302;48.796;11.978;2023-07-31T03:16:14;96863.88;;;14.91;41.19
25350;BME280;13302;48.796;11.978;2023-07-31T03:19:02;96857.47;;;14.87;40.94
25350;BME280;13302;48.796;11.978;2023-07-31T03:21:49;96862.19;;;14.83;41.11
25350;BME280;13302;48.796;11.978;2023-07-31T03:24:36;96864.16;;;14.83;41.24
25350;BME280;13302;48.796;11.978;2023-07-31T03:27:23;96865.75;;;14.80;41.30
25350;BME280;13302;48.796;11.978;2023-07-31T03:30:11;96860.13;;;14.77;40.96
25350;BME280;13302;48.796;11.978;2023-07-31T03:32:58;96858.47;;;14.72;41.03
25350;BME280;13302;48.796;11.978;2023-07-31T03:35:46;96853.28;;;14.70;41.28
25350;BME280;13302;48.796;11.978;2023-07-31T03:38:34;96861.63;;;14.70;41.16
25350;BME280;13302;48.796;11.978;2023-07-31T03:41:21;96860.41;;;14.68;41.10
25350;BME280;13302;48.796;11.978;2023-07-31T03:44:08;96861.16;;;14.65;40.97
25350;BME280;13302;48.796;11.978;2023-07-31T03:46:56;96866.66;;;14.61;41.00
25350;BME280;13302;48.796;11.978;2023-07-31T03:49:43;96861.47;;;14.56;41.24
25350;BME280;13302;48.796;11.978;2023-07-31T03:52:30;96863.44;;;14.56;41.10
25350;BME280;13302;48.796;11.978;2023-07-31T03:55:17;96864.56;;;14.51;41.51
25350;BME280;13302;48.796;11.978;2023-07-31T03:58:04;96861.78;;;14.51;41.39
25350;BME280;13302;48.796;11.978;2023-07-31T04:00:51;96864.13;;;14.49;41.58
25350;BME280;13302;48.796;11.978;2023-07-31T04:03:39;96859.75;;;14.48;41.72
25350;BME280;13302;48.796;11.978;2023-07-31T04:06:26;96867.31;;;14.48;41.73
25350;BME280;13302;48.796;11.978;2023-07-31T04:09:13;96869.69;;;14.49;41.67
25350;BME280;13302;48.796;11.978;2023-07-31T04:11:59;96870.44;;;14.46;41.72
25350;BME280;13302;48.796;11.978;2023-07-31T04:14:47;96867.66;;;14.46;41.80
25350;BME280;13302;48.796;11.978;2023-07-31T04:17:34;96856.13;;;14.44;42.10
25350;BME280;13302;48.796;11.978;2023-07-31T04:20:21;96851.75;;;14.43;41.83
25350;BME280;13302;48.796;11.978;2023-07-31T04:23:08;96853.28;;;14.41;41.87
25350;BME280;13302;48.796;11.978;2023-07-31T04:25:55;96852.88;;;14.39;42.20
25350;BME280;13302;48.796;11.978;2023-07-31T04:28:42;96846.50;;;14.38;42.18
25350;BME280;13302;48.796;11.978;2023-07-31T04:31:29;96854.84;;;14.38;42.40
25350;BME280;13302;48.796;11.978;2023-07-31T04:34:16;96849.66;;;14.37;42.30
25350;BME280;13302;48.796;11.978;2023-07-31T04:37:03;96849.28;;;14.38;42.81
25350;BME280;13302;48.796;11.978;2023-07-31T04:39:50;96849.28;;;14.38;42.84
25350;BME280;13302;48.796;11.978;2023-07-31T04:42:37;96851.69;;;14.40;42.89
25350;BME280;13302;48.796;11.978;2023-07-31T04:45:24;96850.13;;;14.42;43.07
25350;BME280;13302;48.796;11.978;2023-07-31T04:48:11;96840.22;;;14.45;42.98
25350;BME280;13302;48.796;11.978;2023-07-31T04:50:58;96834.72;;;14.48;43.24
25350;BME280;13302;48.796;11.978;2023-07-31T04:53:45;96834.78;;;14.52;43.56
25350;BME280;13302;48.796;11.978;2023-07-31T04:56:32;96840.38;;;14.55;43.38
25350;BME280;13302;48.796;11.978;2023-07-31T04:59:19;96840.81;;;14.61;43.74
25350;BME280;13302;48.796;11.978;2023-07-31T05:02:08;96834.13;;;14.65;43.83
25350;BME280;13302;48.796;11.978;2023-07-31T05:04:55;96836.97;;;14.69;43.87
25350;BME280;13302;48.796;11.978;2023-07-31T05:07:42;96839.81;;;14.73;43.74
25350;BME280;13302;48.796;11.978;2023-07-31T05:10:29;96841.81;;;14.76;44.10
25350;BME280;13302;48.796;11.978;2023-07-31T05:13:16;96848.59;;;14.78;44.29
25350;BME280;13302;48.796;11.978;2023-07-31T05:16:03;96836.72;;;14.81;44.04
25350;BME280;13302;48.796;11.978;2023-07-31T05:18:51;96842.72;;;14.83;43.99
25350;BME280;13302;48.796;11.978;2023-07-31T05:21:38;96843.53;;;14.87;44.45
25350;BME280;13302;48.796;11.978;2023-07-31T05:24:25;96834.09;;;14.92;44.50
25350;BME280;13302;48.796;11.978;2023-07-31T05:27:12;96840.50;;;14.96;44.37
25350;BME280;13302;48.796;11.978;2023-07-31T05:30:01;96839.00;;;15.02;44.50
25350;BME280;13302;48.796;11.978;2023-07-31T05:32:49;96837.47;;;15.08;44.39
25350;BME280;13302;48.796;11.978;2023-07-31T05:35:36;96837.94;;;15.13;44.43
25350;BME280;13302;48.796;11.978;2023-07-31T05:38:24;96841.16;;;15.19;44.27
25350;BME280;13302;48.796;11.978;2023-07-31T05:41:12;96842.81;;;15.27;44.36
25350;BME280;13302;48.796;11.978;2023-07-31T05:43:59;96840.88;;;15.31;44.28
25350;BME280;13302;48.796;11.978;2023-07-31T05:46:46;96844.13;;;15.37;44.56
25350;BME280;13302;48.796;11.978;2023-07-31T05:49:34;96836.59;;;15.41;44.66
25350;BME280;13302;48.796;11.978;2023-07-31T05:52:21;96832.28;;;15.47;44.92
25350;BME280;13302;48.796;11.978;2023-07-31T05:55:08;96829.53;;;15.50;44.30
25350;BME280;13302;48.796;11.978;2023-07-31T05:57:55;96837.16;;;15.57;44.67
25350;BME280;13302;48.796;11.978;2023-07-31T06:00:46;96834.00;;;15.62;44.67
25350;BME280;13302;48.796;11.978;2023-07-31T06:03:33;96838.88;;;15.69;44.14
25350;BME280;13302;48.796;11.978;2023-07-31T06:06:20;96826.56;;;15.73;44.15
25350;BME280;13302;48.796;11.978;2023-07-31T06:09:07;96832.19;;;15.80;44.08
25350;BME280;13302;48.796;11.978;2023-07-31T06:11:54;96836.22;;;15.86;43.65
25350;BME280;13302;48.796;11.978;2023-07-31T06:14:41;96835.09;;;15.94;43.93
25350;BME280;13302;48.796;11.978;2023-07-31T06:17:28;96842.31;;;16.02;43.88
25350;BME280;13302;48.796;11.978;2023-07-31T06:20:16;96832.44;;;16.08;43.54
25350;BME280;13302;48.796;11.978;2023-07-31T06:23:03;96820.50;;;16.15;43.25
25350;BME280;13302;48.796;11.978;2023-07-31T06:25:50;96825.31;;;16.22;43.39
25350;BME280;13302;48.796;11.978;2023-07-31T06:28:37;96816.59;;;16.27;42.92
25350;BME280;13302;48.796;11.978;2023-07-31T06:31:24;96829.00;;;16.33;42.89
25350;BME280;13302;48.796;11.978;2023-07-31T06:34:11;96835.38;;;16.37;43.32
25350;BME280;13302;48.796;11.978;2023-07-31T06:36:59;96830.63;;;16.41;43.35
25350;BME280;13302;48.796;11.978;2023-07-31T06:39:46;96833.06;;;16.46;43.20
25350;BME280;13302;48.796;11.978;2023-07-31T06:42:33;96836.28;;;16.51;43.02
25350;BME280;13302;48.796;11.978;2023-07-31T06:45:20;96837.91;;;16.56;43.03
25350;BME280;13302;48.796;11.978;2023-07-31T06:48:07;96833.56;;;16.62;42.94
25350;BME280;13302;48.796;11.978;2023-07-31T06:50:54;96837.19;;;16.66;42.53
25350;BME280;13302;48.796;11.978;2023-07-31T06:53:41;96830.00;;;16.69;42.89
25350;BME280;13302;48.796;11.978;2023-07-31T06:56:28;96828.03;;;16.73;42.80
25350;BME280;13302;48.796;11.978;2023-07-31T06:59:15;96822.44;;;16.76;42.30
25350;BME280;13302;48.796;11.978;2023-07-31T07:02:02;96820.06;;;16.78;42.21
25350;BME280;13302;48.796;11.978;2023-07-31T07:04:52;96820.47;;;16.80;42.21
25350;BME280;13302;48.796;11.978;2023-07-31T07:07:40;96820.88;;;16.82;42.04
25350;BME280;13302;48.796;11.978;2023-07-31T07:10:27;96816.50;;;16.85;41.88
25350;BME280;13302;48.796;11.978;2023-07-31T07:13:14;96820.91;;;16.86;42.13
25350;BME280;13302;48.796;11.978;2023-07-31T07:16:01;96822.91;;;16.89;42.32
25350;BME280;13302;48.796;11.978;2023-07-31T07:18:48;96818.91;;;16.90;42.07
25350;BME280;13302;48.796;11.978;2023-07-31T07:21:49;96820.13;;;16.92;41.88
25350;BME280;13302;48.796;11.978;2023-07-31T07:24:37;96824.50;;;16.93;41.87
25350;BME280;13302;48.796;11.978;2023-07-31T07:27:24;96827.69;;;16.95;41.95
25350;BME280;13302;48.796;11.978;2023-07-31T07:30:11;96827.72;;;16.99;41.85
25350;BME280;13302;48.796;11.978;2023-07-31T07:32:58;96822.16;;;16.99;41.63
25350;BME280;13302;48.796;11.978;2023-07-31T07:35:45;96825.72;;;16.99;41.92
25350;BME280;13302;48.796;11.978;2023-07-31T07:38:32;96825.31;;;17.01;41.79
25350;BME280;13302;48.796;11.978;2023-07-31T07:41:19;96811.78;;;17.03;41.00
25350;BME280;13302;48.796;11.978;2023-07-31T07:44:07;96813.34;;;17.04;41.00
25350;BME280;13302;48.796;11.978;2023-07-31T07:46:55;96811.38;;;17.05;41.18
25350;BME280;13302;48.796;11.978;2023-07-31T07:49:42;96813.78;;;17.06;41.29
25350;BME280;13302;48.796;11.978;2023-07-31T07:52:34;96809.00;;;17.07;41.03
25350;BME280;13302;48.796;11.978;2023-07-31T07:55:21;96804.97;;;17.08;41.11
25350;BME280;13302;48.796;11.978;2023-07-31T07:58:08;96796.22;;;17.09;41.55
25350;BME280;13302;48.796;11.978;2023-07-31T08:00:55;96807.00;;;17.11;41.51
25350;BME280;13302;48.796;11.978;2023-07-31T08:03:43;96797.84;;;17.14;41.51
25350;BME280;13302;48.796;11.978;2023-07-31T08:06:30;96803.84;;;17.16;41.38
25350;BME280;13302;48.796;11.978;2023-07-31T08:09:17;96808.25;;;17.20;41.47
25350;BME280;13302;48.796;11.978;2023-07-31T08:12:05;96808.25;;;17.24;41.44
25350;BME280;13302;48.796;11.978;2023-07-31T08:14:52;96819.84;;;17.26;41.51
25350;BME280;13302;48.796;11.978;2023-07-31T08:17:39;96823.81;;;17.28;41.43
25350;BME280;13302;48.796;11.978;2023-07-31T08:20:26;96823.06;;;17.31;41.10
25350;BME280;13302;48.796;11.978;2023-07-31T08:23:13;96817.84;;;17.33;41.27
25350;BME280;13302;48.796;11.978;2023-07-31T08:26:00;96820.66;;;17.37;41.31
25350;BME280;13302;48.796;11.978;2023-07-31T08:28:48;96823.06;;;17.38;41.08
25350;BME280;13302;48.796;11.978;2023-07-31T08:31:35;96815.06;;;17.40;41.01
25350;BME280;13302;48.796;11.978;2023-07-31T08:34:22;96819.88;;;17.43;40.85
25350;BME280;13302;48.796;11.978;2023-07-31T08:37:09;96807.09;;;17.46;41.11
25350;BME280;13302;48.796;11.978;2023-07-31T08:39:57;96805.09;;;17.50;41.03
25350;BME280;13302;48.796;11.978;2023-07-31T08:42:50;96797.13;;;17.52;40.95
25350;BME280;13302;48.796;11.978;2023-07-31T08:45:38;96806.31;;;17.56;40.94
25350;BME280;13302;48.796;11.978;2023-07-31T08:48:29;96806.31;;;17.60;40.96
25350;BME280;13302;48.796;11.978;2023-07-31T08:51:18;96798.31;;;17.62;40.56
25350;BME280;13302;48.796;11.978;2023-07-31T08:54:05;96801.91;;;17.66;40.16
25350;BME280;13302;48.796;11.978;2023-07-31T08:56:53;96801.91;;;17.69;39.85
25350;BME280;13302;48.796;11.978;2023-07-31T08:59:40;96796.72;;;17.71;39.86
25350;BME280;13302;48.796;11.978;2023-07-31T09:03:03;96799.13;;;17.73;40.03
25350;BME280;13302;48.796;11.978;2023-07-31T09:05:56;96791.53;;;17.77;40.11
25350;BME280;13302;48.796;11.978;2023-07-31T09:08:44;96793.91;;;17.82;39.98
25350;BME280;13302;48.796;11.978;2023-07-31T09:11:32;96787.16;;;17.86;40.07
25350;BME280;13302;48.796;11.978;2023-07-31T09:14:19;96786.34;;;17.89;39.78
25350;BME280;13302;48.796;11.978;2023-07-31T09:17:06;96788.34;;;17.93;40.09
25350;BME280;13302;48.796;11.978;2023-07-31T09:19:53;96779.53;;;17.94;40.45
25350;BME280;13302;48.796;11.978;2023-07-31T09:22:41;96778.75;;;17.97;40.46
25350;BME280;13302;48.796;11.978;2023-07-31T09:25:28;96777.16;;;18.00;40.42
25350;BME280;13302;48.796;11.978;2023-07-31T09:28:16;96775.53;;;18.02;40.17
25350;BME280;13302;48.796;11.978;2023-07-31T09:31:03;96777.94;;;18.04;39.88
25350;BME280;13302;48.796;11.978;2023-07-31T09:33:56;96778.75;;;18.04;40.06
25350;BME280;13302;48.796;11.978;2023-07-31T09:36:47;96774.34;;;18.07;40.16
25350;BME280;13302;48.796;11.978;2023-07-31T09:39:46;96766.34;;;18.09;40.22
25350;BME280;13302;48.796;11.978;2023-07-31T09:42:34;96761.94;;;18.11;40.64
25350;BME280;13302;48.796;11.978;2023-07-31T09:45:22;96759.13;;;18.15;40.20
25350;BME280;13302;48.796;11.978;2023-07-31T09:48:18;96749.53;;;18.16;40.01
25350;BME280;13302;48.796;11.978;2023-07-31T09:51:05;96741.16;;;18.16;40.08
25350;BME280;13302;48.796;11.978;2023-07-31T09:53:52;96733.16;;;18.18;40.54
25350;BME280;13302;48.796;11.978;2023-07-31T09:56:45;96725.16;;;18.20;40.08
25350;BME280;13302;48.796;11.978;2023-07-31T09:59:32;96727.56;;;18.21;40.67
25350;BME280;13302;48.796;11.978;2023-07-31T10:02:21;96724.72;;;18.25;40.52
25350;BME280;13302;48.796;11.978;2023-07-31T10:05:09;96716.72;;;18.27;40.72
25350;BME280;13302;48.796;11.978;2023-07-31T10:07:59;96715.94;;;18.30;40.46
25350;BME280;13302;48.796;11.978;2023-07-31T10:10:46;96707.91;;;18.32;40.35
25350;BME280;13302;48.796;11.978;2023-07-31T10:13:33;96707.88;;;18.35;39.75
25350;BME280;13302;48.796;11.978;2023-07-31T10:16:20;96704.31;;;18.39;40.20
25350;BME280;13302;48.796;11.978;2023-07-31T10:19:08;96708.28;;;18.41;40.13
25350;BME280;13302;48.796;11.978;2023-07-31T10:21:56;96712.22;;;18.47;39.55
25350;BME280;13302;48.796;11.978;2023-07-31T10:24:46;96705.41;;;18.52;39.44
25350;BME280;13302;48.796;11.978;2023-07-31T10:27:35;96702.25;;;18.53;39.83
25350;BME280;13302;48.796;11.978;2023-07-31T10:30:26;96697.44;;;18.57;39.53
25350;BME280;13302;48.796;11.978;2023-07-31T10:33:14;96706.22;;;18.63;39.21
25350;BME280;13302;48.796;11.978;2023-07-31T10:36:18;96701.41;;;18.63;38.65
25350;BME280;13302;48.796;11.978;2023-07-31T10:39:35;96693.78;;;18.64;39.19
25350;BME280;13302;48.796;11.978;2023-07-31T10:45:26;96697.38;;;18.71;39.21
25350;BME280;13302;48.796;11.978;2023-07-31T10:48:14;96696.53;;;18.74;39.27
25350;BME280;13302;48.796;11.978;2023-07-31T10:51:07;96682.13;;;18.76;39.03
25350;BME280;13302;48.796;11.978;2023-07-31T10:54:11;96678.09;;;18.80;39.08
25350;BME280;13302;48.796;11.978;2023-07-31T10:56:58;96672.06;;;18.86;39.12
25350;BME280;13302;48.796;11.978;2023-07-31T10:59:45;96660.81;;;18.89;39.42
25350;BME280;13302;48.796;11.978;2023-07-31T11:02:33;96652.00;;;18.94;38.47
25350;BME280;13302;48.796;11.978;2023-07-31T11:05:20;96658.78;;;18.97;38.77
25350;BME280;13302;48.796;11.978;2023-07-31T11:08:22;96655.56;;;18.98;38.71
25350;BME280;13302;48.796;11.978;2023-07-31T11:11:12;96655.56;;;18.98;38.20
25350;BME280;13302;48.796;11.978;2023-07-31T11:13:59;96653.94;;;19.01;38.72
25350;BME280;13302;48.796;11.978;2023-07-31T11:16:49;96661.53;;;19.04;38.95
25350;BME280;13302;48.796;11.978;2023-07-31T11:19:37;96654.31;;;19.06;38.59
25350;BME280;13302;48.796;11.978;2023-07-31T11:22:24;96650.66;;;19.09;38.37
25350;BME280;13302;48.796;11.978;2023-07-31T11:25:11;96639.44;;;19.13;38.50
25350;BME280;13302;48.796;11.978;2023-07-31T11:28:06;96639.81;;;19.15;38.15
25350;BME280;13302;48.796;11.978;2023-07-31T11:30:55;96641.44;;;19.19;38.84
25350;BME280;13302;48.796;11.978;2023-07-31T11:33:42;96638.19;;;19.24;38.95
25350;BME280;13302;48.796;11.978;2023-07-31T11:36:30;96627.75;;;19.29;38.59
25350;BME280;13302;48.796;11.978;2023-07-31T11:39:17;96616.50;;;19.32;38.75
25350;BME280;13302;48.796;11.978;2023-07-31T11:42:04;96627.66;;;19.36;38.36
25350;BME280;13302;48.796;11.978;2023-07-31T11:44:51;96626.03;;;19.38;37.92
25350;BME280;13302;48.796;11.978;2023-07-31T11:47:38;96621.66;;;19.37;37.87
25350;BME280;13302;48.796;11.978;2023-07-31T11:50:25;96616.41;;;19.39;37.98
25350;BME280;13302;48.796;11.978;2023-07-31T11:53:13;96612.41;;;19.40;37.83
25350;BME280;13302;48.796;11.978;2023-07-31T11:56:01;96600.34;;;19.43;37.62
25350;BME280;13302;48.796;11.978;2023-07-31T11:58:57;96601.16;;;19.44;37.99
25350;BME280;13302;48.796;11.978;2023-07-31T12:01:45;96598.31;;;19.47;37.51
25350;BME280;13302;48.796;11.978;2023-07-31T12:04:32;96595.91;;;19.49;37.36
25350;BME280;13302;48.796;11.978;2023-07-31T12:07:19;96590.66;;;19.51;37.65
25350;BME280;13302;48.796;11.978;2023-07-31T12:10:06;96593.84;;;19.53;37.63
25350;BME280;13302;48.796;11.978;2023-07-31T12:13:09;96585.00;;;19.55;37.64
25350;BME280;13302;48.796;11.978;2023-07-31T12:16:05;96589.81;;;19.58;37.86
25350;BME280;13302;48.796;11.978;2023-07-31T12:18:52;96590.56;;;19.58;37.36
25350;BME280;13302;48.796;11.978;2023-07-31T12:21:39;96576.94;;;19.60;36.90
25350;BME280;13302;48.796;11.978;2023-07-31T12:24:27;96576.53;;;19.62;36.65
25350;BME280;13302;48.796;11.978;2023-07-31T12:27:14;96571.28;;;19.64;36.70
25350;BME280;13302;48.796;11.978;2023-07-31T12:30:02;96577.69;;;19.64;36.73
25350;BME280;13302;48.796;11.978;2023-07-31T12:32:49;96563.28;;;19.62;36.49
25350;BME280;13302;48.796;11.978;2023-07-31T12:35:37;96560.06;;;19.64;36.64
25350;BME280;13302;48.796;11.978;2023-07-31T12:38:24;96556.06;;;19.65;36.91
25350;BME280;13302;48.796;11.978;2023-07-31T12:41:12;96569.66;;;19.66;36.76
25350;BME280;13302;48.796;11.978;2023-07-31T12:43:59;96570.44;;;19.67;36.86
25350;BME280;13302;48.796;11.978;2023-07-31T12:46:46;96568.84;;;19.69;36.40
25350;BME280;13302;48.796;11.978;2023-07-31T12:49:33;96557.97;;;19.71;36.39
25350;BME280;13302;48.796;11.978;2023-07-31T12:52:20;96556.38;;;19.74;36.66
25350;BME280;13302;48.796;11.978;2023-07-31T12:55:07;96553.06;;;19.79;36.53
25350;BME280;13302;48.796;11.978;2023-07-31T12:57:54;96541.03;;;19.82;36.47
25350;BME280;13302;48.796;11.978;2023-07-31T13:00:42;96545.03;;;19.85;36.45
25350;BME280;13302;48.796;11.978;2023-07-31T13:03:29;96536.56;;;19.88;36.44
25350;BME280;13302;48.796;11.978;2023-07-31T13:06:16;96537.75;;;19.91;35.92
25350;BME280;13302;48.796;11.978;2023-07-31T13:09:03;96534.94;;;19.91;35.90
25350;BME280;13302;48.796;11.978;2023-07-31T13:11:51;96532.91;;;19.91;35.66
25350;BME280;13302;48.796;11.978;2023-07-31T13:14:38;96526.88;;;19.93;35.43
25350;BME280;13302;48.796;11.978;2023-07-31T13:17:25;96525.28;;;19.92;35.73
25350;BME280;13302;48.796;11.978;2023-07-31T13:20:13;96525.28;;;19.92;35.49
25350;BME280;13302;48.796;11.978;2023-07-31T13:23:00;96520.47;;;19.92;35.45
25350;BME280;13302;48.796;11.978;2023-07-31T13:25:47;96508.84;;;19.94;35.38
25350;BME280;13302;48.796;11.978;2023-07-31T13:28:34;96497.97;;;19.96;35.70
25350;BME280;13302;48.796;11.978;2023-07-31T13:31:21;96506.78;;;19.98;35.61
25350;BME280;13302;48.796;11.978;2023-07-31T13:34:08;96502.34;;;20.00;35.45
25350;BME280;13302;48.796;11.978;2023-07-31T13:36:55;96497.09;;;20.02;35.24
25350;BME280;13302;48.796;11.978;2023-07-31T13:39:43;96494.66;;;20.04;35.46
25350;BME280;13302;48.796;11.978;2023-07-31T13:42:30;96490.66;;;20.05;35.40
25350;BME280;13302;48.796;11.978;2023-07-31T13:45:17;96479.41;;;20.05;35.55
25350;BME280;13302;48.796;11.978;2023-07-31T13:48:04;96475.41;;;20.06;35.64
25350;BME280;13302;48.796;11.978;2023-07-31T13:50:52;96470.94;;;20.09;35.63
25350;BME280;13302;48.796;11.978;2023-07-31T13:53:39;96476.94;;;20.11;35.71
25350;BME280;13302;48.796;11.978;2023-07-31T13:56:26;96470.09;;;20.12;35.35
25350;BME280;13302;48.796;11.978;2023-07-31T13:59:13;96470.47;;;20.14;35.67
25350;BME280;13302;48.796;11.978;2023-07-31T14:02:02;96463.66;;;20.15;35.17
25350;BME280;13302;48.796;11.978;2023-07-31T14:04:49;96458.81;;;20.15;35.34
25350;BME280;13302;48.796;11.978;2023-07-31T14:07:36;96451.19;;;20.16;35.35
25350;BME280;13302;48.796;11.978;2023-07-31T14:10:23;96455.59;;;20.17;35.18
25350;BME280;13302;48.796;11.978;2023-07-31T14:13:10;96454.38;;;20.18;35.42
25350;BME280;13302;48.796;11.978;2023-07-31T14:15:57;96443.94;;;20.18;34.93
25350;BME280;13302;48.796;11.978;2023-07-31T14:18:44;96451.16;;;20.20;34.77
25350;BME280;13302;48.796;11.978;2023-07-31T14:21:35;96447.91;;;20.21;35.06
25350;BME280;13302;48.796;11.978;2023-07-31T14:24:22;96435.47;;;20.22;35.55
25350;BME280;13302;48.796;11.978;2023-07-31T14:27:09;96444.25;;;20.24;35.55
25350;BME280;13302;48.796;11.978;2023-07-31T14:29:56;96440.59;;;20.27;35.60
25350;BME280;13302;48.796;11.978;2023-07-31T14:32:43;96446.56;;;20.29;35.25
25350;BME280;13302;48.796;11.978;2023-07-31T14:35:31;96442.13;;;20.32;35.64
25350;BME280;13302;48.796;11.978;2023-07-31T14:38:18;96433.28;;;20.33;35.47
25350;BME280;13302;48.796;11.978;2023-07-31T14:41:05;96434.44;;;20.36;35.51
25350;BME280;13302;48.796;11.978;2023-07-31T14:43:52;96435.59;;;20.38;36.00
25350;BME280;13302;48.796;11.978;2023-07-31T14:46:39;96431.59;;;20.39;35.51